Time;durP1;ratioP1;P1;durP2;ratioP2;P2;SDS_P1;SDS_P2;PMS_P1;PMS_P2;Temp;Humidity;BMP_temperature;BMP_pressure;BME280_temperature;BME280_humidity;BME280_pressure;Samples;Min_cycle;Max_cycle;Signal;HPM_P1;HPM_P2
2023/08/03 01:40:17;;;;;;;6.50;2.57;;;16.60;99.90;;;;;;4883481;29;20472;-78
2023/08/03 02:18:03;;;;;;;7.80;1.87;;;17.10;99.90;;;;;;4812262;29;20448;-77
2023/08/03 02:34:08;;;;;;;3.23;1.43;;;16.90;99.90;;;;;;4969749;28;20860;-78
2023/08/03 02:37:10;;;;;;;;;;;;;;;;;;;;;
2023/08/03 02:46:03;;;;;;;6.20;2.50;;;17.10;99.90;;;;;;5044426;28;20438;-78
2023/08/03 02:48:52;;;;;;;5.83;2.40;;;17.00;99.90;;;;;;5058380;28;20927;-78
2023/08/03 02:51:30;;;;;;;4.07;2.93;;;16.90;99.90;;;;;;5064335;28;20454;-78
2023/08/03 02:54:30;;;;;;;;;;;;;;;;;;;;;
2023/08/03 02:57:31;;;;;;;8.70;2.60;;;17.00;99.90;;;;;;5054273;28;20480;-77
2023/08/03 03:00:18;;;;;;;4.73;2.10;;;16.90;99.90;;;;;;5057937;28;20461;-77
2023/08/03 03:06:01;;;;;;;8.00;3.30;;;16.80;99.90;;;;;;5062433;28;20484;-78
2023/08/03 03:08:31;;;;;;;4.20;2.17;;;16.70;99.90;;;;;;5056146;28;20454;-78
2023/08/03 03:11:02;;;;;;;6.17;2.50;;;16.70;99.90;;;;;;5057406;28;20449;-79
2023/08/03 03:13:40;;;;;;;8.17;2.93;;;16.80;99.90;;;;;;5055394;28;20536;-79
2023/08/03 03:16:40;;;;;;;7.47;2.00;;;16.80;99.90;;;;;;5056886;28;20515;-79
2023/08/03 03:19:33;;;;;;;3.80;1.67;;;16.80;99.90;;;;;;5052060;28;20497;-79
2023/08/03 03:22:20;;;;;;;6.53;2.40;;;16.70;99.90;;;;;;5049145;28;20445;-79
2023/08/03 03:25:39;;;;;;;;;;;;;;;;;;;;;
2023/08/03 03:32:11;;;;;;;11.47;2.77;;;16.70;99.90;;;;;;5033558;28;20450;-77
2023/08/03 03:42:03;;;;;;;2.00;1.77;;;16.60;99.90;;;;;;5040925;28;20575;-78
2023/08/03 03:45:11;;;;;;;7.30;2.67;;;16.70;99.90;;;;;;5049463;28;20449;-78
2023/08/03 03:47:59;;;;;;;5.00;2.40;;;16.60;99.90;;;;;;5050781;28;20472;-78
2023/08/03 03:51:22;;;;;;;4.63;1.90;;;16.70;99.90;;;;;;5049556;28;20450;-78
2023/08/03 03:54:10;;;;;;;2.30;1.90;;;16.60;99.90;;;;;;5051653;28;20472;-78
2023/08/03 03:57:09;;;;;;;5.63;2.77;;;16.70;99.90;;;;;;5044520;28;20452;-78
2023/08/03 04:00:03;;;;;;;1.80;1.70;;;16.70;99.90;;;;;;5049036;28;20475;-79
2023/08/03 04:02:58;;;;;;;3.80;1.93;;;16.60;99.90;;;;;;5047844;28;20450;-79
2023/08/03 04:05:27;;;;;;;3.70;2.23;;;16.70;99.90;;;;;;5053798;28;20532;-78
2023/08/03 04:07:56;;;;;;;2.77;2.57;;;16.70;99.90;;;;;;5043649;28;20437;-78
2023/08/03 04:10:35;;;;;;;4.00;2.03;;;16.70;99.90;;;;;;5047981;28;20858;-78
2023/08/03 04:13:16;;;;;;;2.93;2.20;;;16.70;99.90;;;;;;5050203;28;20471;-79
2023/08/03 04:16:01;;;;;;;2.23;2.03;;;16.60;99.90;;;;;;5044765;28;20600;-79
2023/08/03 04:18:56;;;;;;;2.90;2.60;;;16.80;99.90;;;;;;5050813;28;20510;-79
2023/08/03 04:21:34;;;;;;;2.13;1.93;;;16.70;99.90;;;;;;5047438;28;20833;-80
2023/08/03 04:27:18;;;;;;;5.57;2.10;;;16.70;99.90;;;;;;5053733;28;20957;-79
2023/08/03 04:33:02;;;;;;;4.00;2.50;;;16.60;99.90;;;;;;5011328;28;20491;-79
2023/08/03 04:36:14;;;;;;;2.70;2.50;;;16.70;99.90;;;;;;5023905;28;20465;-79
2023/08/03 04:38:58;;;;;;;2.70;2.37;;;16.70;99.90;;;;;;5011019;28;20932;-79
2023/08/03 04:41:33;;;;;;;2.87;2.47;;;16.70;99.90;;;;;;5027989;28;20463;-77
2023/08/03 04:44:27;;;;;;;6.23;2.90;;;16.70;99.90;;;;;;5044920;28;20441;-78
2023/08/03 04:47:09;;;;;;;3.07;2.60;;;16.80;99.90;;;;;;5045075;28;20477;-78
2023/08/03 04:49:42;;;;;;;3.73;3.40;;;16.70;99.90;;;;;;5051269;28;20551;-78
2023/08/03 04:52:21;;;;;;;4.63;3.53;;;16.80;99.90;;;;;;5051991;28;20491;-79
2023/08/03 04:54:53;;;;;;;3.50;3.20;;;16.80;99.90;;;;;;5050570;28;20470;-79
2023/08/03 05:00:33;;;;;;;4.57;4.17;;;16.80;99.90;;;;;;5035054;28;20441;-79
2023/08/03 05:03:35;;;;;;;2.97;2.63;;;16.80;99.90;;;;;;5053204;28;20507;-78
2023/08/03 05:06:16;;;;;;;3.73;3.43;;;16.80;99.90;;;;;;5043842;28;20468;-79
2023/08/03 05:08:42;;;;;;;5.60;4.13;;;16.80;99.90;;;;;;5057180;28;20492;-79
2023/08/03 05:11:11;;;;;;;6.40;3.63;;;16.80;99.90;;;;;;5055254;28;20524;-84
2023/08/03 05:13:38;;;;;;;4.10;3.80;;;16.80;99.90;;;;;;5062284;28;20460;-79
2023/08/03 05:16:05;;;;;;;4.73;3.60;;;16.90;99.90;;;;;;5051601;28;20443;-79
2023/08/03 05:18:32;;;;;;;3.53;3.10;;;17.00;99.90;;;;;;5043694;28;20560;-78
2023/08/03 05:20:59;;;;;;;3.53;3.17;;;17.10;99.90;;;;;;5048637;28;20454;-78
2023/08/03 05:23:25;;;;;;;4.00;3.60;;;17.10;99.90;;;;;;5044410;28;21049;-78
2023/08/03 05:25:54;;;;;;;4.20;3.80;;;17.00;99.90;;;;;;5049001;28;20463;-78
2023/08/03 05:28:23;;;;;;;4.10;3.70;;;17.00;99.90;;;;;;5043248;28;20462;-78
2023/08/03 05:30:50;;;;;;;5.77;4.43;;;17.10;99.90;;;;;;5052110;28;20532;-78
2023/08/03 05:33:17;;;;;;;6.53;3.90;;;17.20;99.90;;;;;;5058461;28;20842;-78
2023/08/03 05:35:44;;;;;;;5.27;4.77;;;17.20;99.90;;;;;;5055185;28;20438;-78
2023/08/03 05:38:11;;;;;;;5.43;3.33;;;17.20;99.90;;;;;;5058406;28;20511;-79
2023/08/03 05:40:40;;;;;;;5.10;4.50;;;17.20;99.90;;;;;;5052576;28;20484;-79
2023/08/03 05:43:10;;;;;;;6.87;4.10;;;17.20;99.90;;;;;;5050684;28;20442;-79
2023/08/03 05:45:41;;;;;;;4.60;4.20;;;17.20;99.90;;;;;;5054784;28;20438;-78
2023/08/03 05:48:16;;;;;;;4.93;4.53;;;17.10;99.90;;;;;;5048080;28;20560;-78
2023/08/03 05:50:44;;;;;;;6.13;3.83;;;17.00;99.90;;;;;;5056167;28;20448;-79
2023/08/03 05:53:12;;;;;;;8.10;4.33;;;17.00;99.90;;;;;;5047411;28;20507;-79
2023/08/03 05:55:40;;;;;;;8.83;4.83;;;17.00;99.90;;;;;;5056589;28;20441;-78
2023/08/03 05:58:09;;;;;;;7.87;6.77;;;17.10;99.90;;;;;;5053335;28;20850;-77
2023/08/03 06:00:38;;;;;;;6.63;4.60;;;17.10;99.90;;;;;;5053916;28;20450;-77
2023/08/03 06:03:04;;;;;;;6.13;5.37;;;17.10;99.90;;;;;;5049234;28;20449;-77
2023/08/03 06:05:40;;;;;;;7.23;4.60;;;17.20;99.90;;;;;;5049877;28;20769;-78
2023/08/03 06:08:12;;;;;;;6.13;5.63;;;17.30;99.90;;;;;;5057009;28;20475;-78
2023/08/03 06:10:39;;;;;;;5.70;5.20;;;17.30;99.90;;;;;;5046521;28;20446;-78
2023/08/03 06:13:12;;;;;;;4.50;4.10;;;17.30;99.90;;;;;;5059005;28;20456;-85
2023/08/03 06:15:41;;;;;;;7.43;4.80;;;17.40;99.90;;;;;;5056230;28;20446;-80
2023/08/03 06:18:11;;;;;;;4.97;4.47;;;17.40;99.90;;;;;;5056188;28;21084;-79
2023/08/03 06:20:41;;;;;;;11.33;4.70;;;17.40;99.90;;;;;;5050985;28;20621;-81
2023/08/03 06:23:13;;;;;;;10.90;9.00;;;17.40;99.90;;;;;;5052919;28;20446;-80
2023/08/03 06:25:40;;;;;;;6.97;5.43;;;17.50;99.90;;;;;;5075550;28;20464;-80
2023/08/03 06:28:09;;;;;;;5.93;5.30;;;17.50;99.90;;;;;;5073761;28;20536;-80
2023/08/03 06:30:36;;;;;;;7.10;5.20;;;17.60;99.90;;;;;;5068496;28;20427;-80
2023/08/03 06:33:26;;;;;;;5.90;4.90;;;17.60;99.90;;;;;;5070463;28;20494;-85
2023/08/03 06:35:54;;;;;;;9.97;5.20;;;17.70;99.90;;;;;;5049562;28;20447;-77
2023/08/03 06:38:22;;;;;;;6.27;4.90;;;17.50;99.90;;;;;;5052345;28;20493;-76
2023/08/03 06:40:51;;;;;;;5.27;4.20;;;17.40;99.90;;;;;;5049089;28;20438;-83
2023/08/03 06:43:45;;;;;;;9.43;5.50;;;17.40;99.90;;;;;;5053671;28;20487;-87
2023/08/03 06:46:24;;;;;;;5.13;4.70;;;17.50;99.90;;;;;;5047751;28;20825;-87
2023/08/03 06:48:57;;;;;;;4.97;4.57;;;17.60;99.90;;;;;;5053653;28;20446;-84
2023/08/03 06:51:33;;;;;;;5.80;4.73;;;17.70;99.90;;;;;;5057135;28;20459;-83
2023/08/03 06:54:30;;;;;;;5.53;5.03;;;17.80;99.90;;;;;;5064874;28;20502;-84
2023/08/03 06:57:17;;;;;;;7.43;4.63;;;17.90;99.90;;;;;;5018763;28;20462;-87
2023/08/03 06:59:44;;;;;;;5.67;5.07;;;18.10;99.90;;;;;;5062555;28;20501;-79
2023/08/03 07:02:11;;;;;;;4.90;4.30;;;18.50;99.90;;;;;;5062040;28;20492;-83
2023/08/03 07:04:39;;;;;;;5.70;3.30;;;18.90;99.90;;;;;;5062123;28;20442;-80
2023/08/03 07:07:07;;;;;;;3.73;3.30;;;19.70;99.90;;;;;;5056735;28;20513;-82
2023/08/03 07:09:34;;;;;;;3.20;2.90;;;20.30;99.90;;;;;;5057950;28;20485;-81
2023/08/03 07:12:01;;;;;;;7.90;2.93;;;21.20;99.90;;;;;;5055456;28;20465;-80
2023/08/03 07:14:28;;;;;;;5.93;2.67;;;22.40;99.90;;;;;;5050017;28;20971;-84
2023/08/03 07:16:57;;;;;;;7.40;2.60;;;23.90;99.90;;;;;;5056965;28;20449;-82
2023/08/03 07:19:24;;;;;;;4.93;2.30;;;24.60;99.90;;;;;;5057864;28;20520;-80
2023/08/03 07:22:08;;;;;;;3.53;2.53;;;25.20;99.90;;;;;;5053800;28;20512;-84
2023/08/03 07:24:36;;;;;;;2.93;2.30;;;24.80;99.90;;;;;;5054053;28;20472;-83
2023/08/03 07:27:03;;;;;;;3.40;2.87;;;23.90;99.90;;;;;;5063365;28;20470;-82
2023/08/03 07:29:30;;;;;;;3.30;3.00;;;23.00;99.90;;;;;;5056509;28;20461;-82
2023/08/03 07:31:58;;;;;;;4.40;2.90;;;22.70;99.90;;;;;;5059335;28;20470;-82
2023/08/03 07:34:25;;;;;;;4.30;2.53;;;22.40;99.90;;;;;;5063059;28;20458;-82
2023/08/03 07:36:53;;;;;;;6.90;3.30;;;22.20;99.90;;;;;;5061753;28;20452;-82
2023/08/03 07:39:21;;;;;;;3.63;3.13;;;22.20;99.90;;;;;;5054638;28;20490;-82
2023/08/03 07:41:48;;;;;;;5.20;3.23;;;21.90;99.90;;;;;;5061331;28;20470;-82
2023/08/03 07:44:19;;;;;;;4.60;3.03;;;21.60;99.90;;;;;;5058272;28;20530;-82
2023/08/03 07:46:50;;;;;;;5.70;3.00;;;21.70;99.90;;;;;;5050812;28;20689;-82
2023/08/03 07:49:17;;;;;;;3.97;2.37;;;21.80;99.90;;;;;;5060819;28;20481;-81
2023/08/03 07:51:45;;;;;;;3.47;2.80;;;22.40;99.90;;;;;;5054568;28;20472;-81
2023/08/03 07:54:12;;;;;;;4.73;2.47;;;23.10;99.90;;;;;;5051962;28;20489;-81
2023/08/03 07:56:40;;;;;;;3.13;2.83;;;22.90;99.90;;;;;;5051334;28;20442;-82
2023/08/03 07:59:07;;;;;;;2.87;1.70;;;22.30;99.90;;;;;;5047147;23;20578;-72
2023/08/03 08:01:34;;;;;;;2.27;2.07;;;23.00;99.90;;;;;;5026098;28;20925;-72
2023/08/03 08:04:02;;;;;;;5.70;2.70;;;23.30;99.90;;;;;;5029080;28;20464;-73
2023/08/03 08:06:30;;;;;;;3.30;2.50;;;23.30;99.90;;;;;;5028300;28;20451;-72
2023/08/03 08:08:59;;;;;;;4.23;2.00;;;23.20;99.90;;;;;;5033092;28;20439;-71
2023/08/03 08:11:26;;;;;;;4.63;3.00;;;22.60;99.90;;;;;;5028405;28;20957;-72
2023/08/03 08:13:55;;;;;;;5.40;2.30;;;22.40;99.90;;;;;;5025396;28;20871;-71
2023/08/03 08:16:22;;;;;;;2.40;1.50;;;22.90;99.90;;;;;;5032158;28;20474;-73
2023/08/03 08:18:51;;;;;;;3.70;1.70;;;23.00;99.90;;;;;;5031351;28;20486;-70
2023/08/03 08:21:18;;;;;;;4.37;1.90;;;22.50;99.90;;;;;;5030032;28;20943;-70
2023/08/03 08:23:45;;;;;;;4.80;2.20;;;22.10;99.90;;;;;;5029084;28;20904;-70
2023/08/03 08:26:13;;;;;;;3.00;1.50;;;22.50;99.90;;;;;;5030904;28;20991;-71
2023/08/03 08:28:40;;;;;;;5.80;1.87;;;22.50;99.90;;;;;;5028567;28;20451;-71
2023/08/03 08:31:09;;;;;;;2.70;1.47;;;22.60;99.90;;;;;;5024353;28;20461;-71
2023/08/03 08:33:37;;;;;;;5.10;1.80;;;22.60;99.90;;;;;;5032299;28;20485;-71
2023/08/03 08:36:04;;;;;;;8.93;2.47;;;22.60;99.90;;;;;;5027972;28;20463;-70
2023/08/03 08:38:32;;;;;;;4.47;1.77;;;22.60;99.90;;;;;;5021339;28;20443;-72
2023/08/03 08:41:02;;;;;;;4.23;2.40;;;21.90;99.90;;;;;;5030929;28;20450;-70
2023/08/03 08:43:29;;;;;;;4.83;2.90;;;21.60;99.90;;;;;;5031941;28;20514;-69
2023/08/03 08:45:56;;;;;;;5.03;2.30;;;21.40;99.90;;;;;;5032511;28;20533;-71
2023/08/03 08:48:25;;;;;;;6.93;2.03;;;21.30;99.90;;;;;;5032124;28;20467;-71
2023/08/03 08:50:54;;;;;;;5.33;2.37;;;21.40;99.90;;;;;;5031147;28;20522;-69
2023/08/03 08:53:21;;;;;;;4.07;2.10;;;21.40;99.90;;;;;;5025400;28;20976;-73
2023/08/03 08:55:51;;;;;;;4.53;2.70;;;21.50;99.90;;;;;;5031621;28;20482;-71
2023/08/03 08:58:19;;;;;;;10.53;3.33;;;21.40;99.90;;;;;;5028534;28;20518;-72
2023/08/03 09:00:47;;;;;;;4.50;2.67;;;21.20;99.90;;;;;;5029520;28;20475;-70
2023/08/03 09:03:15;;;;;;;4.63;2.70;;;20.70;99.90;;;;;;5022121;28;21032;-69
2023/08/03 09:05:43;;;;;;;3.30;3.00;;;20.00;99.90;;;;;;5030741;28;20488;-72
2023/08/03 09:08:14;;;;;;;4.83;3.10;;;19.80;99.90;;;;;;5035173;28;21002;-70
2023/08/03 09:10:52;;;;;;;3.63;1.80;;;19.70;99.90;;;;;;5025845;28;20446;-70
2023/08/03 09:13:29;;;;;;;3.60;1.77;;;20.40;99.90;;;;;;5031120;28;20466;-70
2023/08/03 09:15:56;;;;;;;1.70;1.27;;;21.70;99.90;;;;;;5035997;28;20440;-72
2023/08/03 09:18:25;;;;;;;1.50;1.20;;;23.00;99.90;;;;;;5035993;28;20497;-69
2023/08/03 09:21:08;;;;;;;1.80;1.20;;;23.70;99.90;;;;;;5035252;28;20539;-71
2023/08/03 09:23:36;;;;;;;2.80;1.27;;;24.30;99.90;;;;;;5035803;28;20501;-71
2023/08/03 09:26:03;;;;;;;2.07;1.20;;;24.60;99.90;;;;;;5035165;28;20939;-71
2023/08/03 09:28:36;;;;;;;2.77;1.17;;;24.80;99.90;;;;;;5030387;28;20466;-70
2023/08/03 09:31:05;;;;;;;2.13;0.93;;;25.00;99.90;;;;;;5032931;28;21259;-71
2023/08/03 09:33:32;;;;;;;4.77;1.50;;;25.20;99.90;;;;;;5034646;28;20505;-71
2023/08/03 09:36:05;;;;;;;4.90;1.57;;;25.00;99.90;;;;;;5034772;28;20949;-69
2023/08/03 09:38:33;;;;;;;2.50;1.73;;;24.70;99.90;;;;;;5029406;23;20500;-81
2023/08/03 09:41:00;;;;;;;2.03;1.30;;;25.00;99.90;;;;;;5002718;28;20550;-80
2023/08/03 09:43:28;;;;;;;4.63;1.03;;;25.90;99.90;;;;;;5001993;28;20533;-79
2023/08/03 09:45:57;;;;;;;2.90;1.30;;;25.90;99.90;;;;;;4996446;28;20473;-80
2023/08/03 09:48:24;;;;;;;1.20;0.90;;;25.60;99.90;;;;;;5004621;28;20462;-80
2023/08/03 09:50:53;;;;;;;0.90;0.80;;;24.70;99.90;;;;;;5000420;28;20440;-80
2023/08/03 09:53:24;;;;;;;1.33;0.80;;;24.10;99.90;;;;;;4998941;28;20512;-79
2023/08/03 09:55:58;;;;;;;1.20;0.80;;;23.50;99.90;;;;;;5005108;28;20536;-80
2023/08/03 09:58:30;;;;;;;1.50;0.73;;;23.70;99.90;;;;;;5003664;28;20491;-81
2023/08/03 10:00:59;;;;;;;1.20;0.70;;;24.40;99.90;;;;;;5011589;28;20483;-81
2023/08/03 10:03:30;;;;;;;2.07;0.70;;;25.20;99.90;;;;;;5004208;28;20472;-81
2023/08/03 10:06:04;;;;;;;1.17;0.90;;;26.10;99.90;;;;;;5003263;28;20452;-81
2023/08/03 10:08:40;;;;;;;1.43;0.70;;;26.70;99.90;;;;;;5008323;28;20551;-81
2023/08/03 10:11:11;;;;;;;1.30;0.90;;;26.80;99.90;;;;;;5005357;28;20447;-81
2023/08/03 10:13:42;;;;;;;2.70;0.90;;;26.80;99.90;;;;;;5004014;28;20535;-81
2023/08/03 10:16:08;;;;;;;1.03;0.50;;;27.00;99.90;;;;;;4999193;28;20482;-81
2023/08/03 10:18:36;;;;;;;1.10;0.60;;;27.50;99.90;;;;;;4997252;28;20547;-81
2023/08/03 10:21:05;;;;;;;1.40;0.60;;;28.00;99.30;;;;;;5000082;28;20493;-81
2023/08/03 10:23:35;;;;;;;3.57;1.07;;;28.80;97.90;;;;;;5002050;28;20451;-80
2023/08/03 10:26:03;;;;;;;1.73;0.80;;;29.10;96.50;;;;;;5013578;28;20526;-80
2023/08/03 10:28:47;;;;;;;1.97;0.70;;;28.40;95.40;;;;;;5010776;28;20496;-81
2023/08/03 10:31:15;;;;;;;3.10;0.87;;;28.40;95.40;;;;;;5005242;28;20447;-80
2023/08/03 10:34:08;;;;;;;1.13;0.50;;;27.90;96.10;;;;;;5003043;28;20484;-80
2023/08/03 10:36:55;;;;;;;1.60;0.83;;;28.30;95.90;;;;;;5003023;28;20511;-81
2023/08/03 10:39:53;;;;;;;3.83;0.80;;;28.40;95.80;;;;;;5007613;28;20461;-81
2023/08/03 10:42:28;;;;;;;1.20;0.70;;;28.20;95.30;;;;;;5009962;28;20496;-79
2023/08/03 10:45:16;;;;;;;2.10;1.10;;;27.70;95.90;;;;;;5010169;28;20444;-79
2023/08/03 10:47:43;;;;;;;1.50;0.97;;;27.10;97.20;;;;;;5007183;28;20487;-80
2023/08/03 10:50:10;;;;;;;1.80;0.70;;;26.70;98.30;;;;;;5010773;28;20449;-80
2023/08/03 10:52:36;;;;;;;2.80;1.10;;;26.30;98.90;;;;;;5010017;28;20451;-78
2023/08/03 10:55:24;;;;;;;5.47;1.80;;;26.00;99.90;;;;;;5008199;28;20483;-82
2023/08/03 10:57:51;;;;;;;1.40;0.90;;;25.20;99.90;;;;;;5003237;28;20949;-80
2023/08/03 11:00:18;;;;;;;3.03;1.20;;;23.90;99.90;;;;;;5004812;28;20552;-81
2023/08/03 11:02:45;;;;;;;4.33;1.00;;;23.00;99.90;;;;;;5005059;28;20453;-81
2023/08/03 11:05:12;;;;;;;1.27;0.70;;;22.60;99.90;;;;;;4999747;28;20977;-81
2023/08/03 11:07:41;;;;;;;2.20;0.97;;;22.60;99.90;;;;;;5004737;28;20453;-81
2023/08/03 11:10:10;;;;;;;1.63;0.90;;;22.70;99.90;;;;;;5004185;28;20473;-81
2023/08/03 11:12:39;;;;;;;1.93;0.90;;;23.00;99.90;;;;;;5001149;28;21020;-80
2023/08/03 11:15:07;;;;;;;3.47;1.10;;;23.20;99.90;;;;;;5003449;28;20445;-79
2023/08/03 11:17:35;;;;;;;1.37;1.07;;;23.50;99.90;;;;;;5004390;28;20452;-81
2023/08/03 11:20:04;;;;;;;2.70;0.80;;;23.60;99.90;;;;;;5004125;28;20497;-81
2023/08/03 11:22:31;;;;;;;2.50;0.80;;;24.00;99.90;;;;;;5007918;28;20457;-81
2023/08/03 11:25:03;;;;;;;3.10;1.17;;;24.00;99.90;;;;;;5011032;28;20456;-80
2023/08/03 11:27:30;;;;;;;1.73;0.73;;;24.10;99.90;;;;;;5004114;28;20453;-80
2023/08/03 11:29:58;;;;;;;4.87;1.50;;;24.00;99.90;;;;;;5006790;28;20484;-80
2023/08/03 11:32:27;;;;;;;4.73;1.17;;;24.00;99.90;;;;;;5015390;28;20495;-81
2023/08/03 11:35:00;;;;;;;1.87;1.67;;;24.10;99.90;;;;;;5016239;28;20482;-80
2023/08/03 11:37:30;;;;;;;3.77;1.17;;;24.20;99.90;;;;;;5008447;28;20579;-81
2023/08/03 11:39:58;;;;;;;1.83;1.00;;;24.20;99.90;;;;;;5010699;28;20507;-80
2023/08/03 11:42:26;;;;;;;4.57;0.90;;;24.30;99.90;;;;;;5003144;28;20818;-81
2023/08/03 11:44:52;;;;;;;4.30;0.97;;;24.40;99.90;;;;;;5012511;28;20440;-81
2023/08/03 11:47:21;;;;;;;2.93;0.97;;;24.40;99.90;;;;;;5012742;28;20491;-81
2023/08/03 11:49:48;;;;;;;1.10;0.80;;;24.60;99.90;;;;;;5008870;28;20499;-79
2023/08/03 11:52:19;;;;;;;5.50;1.40;;;24.50;99.90;;;;;;5006993;28;20475;-81
2023/08/03 11:54:47;;;;;;;1.53;1.10;;;24.60;99.90;;;;;;5004153;28;20809;-80
2023/08/03 11:59:59;;;;;;;3.30;1.00;;;24.50;99.90;;;;;;5001500;28;20487;-81
2023/08/03 12:02:41;;;;;;;3.83;1.00;;;24.10;99.90;;;;;;5001254;28;20794;-80
2023/08/03 12:05:09;;;;;;;1.43;0.90;;;24.00;99.90;;;;;;5003097;28;20444;-79
2023/08/03 12:07:36;;;;;;;2.23;1.50;;;24.20;99.90;;;;;;5014404;28;20485;-80
2023/08/03 12:10:12;;;;;;;2.70;1.10;;;24.30;99.90;;;;;;5020782;28;20457;-78
2023/08/03 12:12:39;;;;;;;4.00;1.30;;;24.20;99.90;;;;;;5026042;28;20428;-79
2023/08/03 12:15:07;;;;;;;2.40;1.20;;;24.20;99.90;;;;;;5010924;28;20542;-80
2023/08/03 12:17:33;;;;;;;1.93;1.23;;;24.20;99.90;;;;;;4999977;28;20454;-80
2023/08/03 12:20:02;;;;;;;2.70;1.10;;;24.40;99.90;;;;;;4999652;28;20468;-80
2023/08/03 12:22:29;;;;;;;3.30;1.80;;;24.50;99.90;;;;;;5002725;28;20455;-79
2023/08/03 12:24:56;;;;;;;2.00;1.20;;;24.40;99.90;;;;;;5009085;28;20575;-78
2023/08/03 12:27:23;;;;;;;1.27;0.77;;;24.40;99.90;;;;;;5001368;28;20770;-79
2023/08/03 12:29:49;;;;;;;3.73;1.20;;;24.20;99.90;;;;;;5000302;28;20506;-80
2023/08/03 12:32:16;;;;;;;5.50;2.40;;;24.30;99.90;;;;;;5001190;28;20531;-79
2023/08/03 12:34:43;;;;;;;2.50;1.30;;;24.40;99.90;;;;;;5000193;28;20536;-81
2023/08/03 12:37:11;;;;;;;2.33;1.00;;;24.70;99.90;;;;;;4999546;28;20524;-80
2023/08/03 12:39:38;;;;;;;2.47;1.10;;;25.00;99.90;;;;;;5000831;28;20808;-83
2023/08/03 12:42:06;;;;;;;6.97;4.13;;;25.30;99.90;;;;;;5000116;28;20484;-80
2023/08/03 12:44:33;;;;;;;4.50;1.70;;;25.60;99.90;;;;;;5000233;28;20823;-81
2023/08/03 12:47:00;;;;;;;3.17;1.33;;;25.90;99.90;;;;;;5000375;28;20773;-81
2023/08/03 12:49:27;;;;;;;3.37;1.10;;;25.80;99.40;;;;;;5002932;28;20477;-81
2023/08/03 12:51:54;;;;;;;2.33;1.17;;;25.60;97.70;;;;;;5001590;28;20445;-81
2023/08/03 12:54:22;;;;;;;6.70;1.33;;;25.30;97.90;;;;;;5000649;28;20942;-81
2023/08/03 12:56:49;;;;;;;9.60;4.80;;;25.30;98.50;;;;;;5001822;28;20456;-80
2023/08/03 12:59:16;;;;;;;3.87;1.17;;;25.30;99.20;;;;;;5002005;28;20504;-81
2023/08/03 13:01:43;;;;;;;1.43;0.90;;;25.50;99.00;;;;;;5001296;28;20477;-81
2023/08/03 13:04:10;;;;;;;3.67;1.27;;;25.80;98.00;;;;;;5004110;28;20954;-80
2023/08/03 13:06:37;;;;;;;4.70;1.47;;;25.70;98.00;;;;;;5007802;28;20492;-80
2023/08/03 13:09:04;;;;;;;3.23;1.40;;;25.90;98.40;;;;;;5004552;28;20452;-81
2023/08/03 13:11:32;;;;;;;2.63;0.87;;;25.90;98.00;;;;;;5007784;28;20455;-81
2023/08/03 13:13:59;;;;;;;3.23;0.93;;;25.80;97.60;;;;;;5005761;28;20528;-81
2023/08/03 13:16:26;;;;;;;1.50;0.70;;;25.80;96.60;;;;;;5009557;28;20477;-80
2023/08/03 13:18:53;;;;;;;2.77;1.07;;;25.30;96.60;;;;;;5003782;28;20969;-81
2023/08/03 13:21:20;;;;;;;2.30;0.80;;;24.90;97.40;;;;;;5003945;28;20481;-80
2023/08/03 13:23:49;;;;;;;5.63;1.43;;;24.70;98.00;;;;;;5003114;28;20455;-81
2023/08/03 13:26:16;;;;;;;2.57;1.17;;;24.60;98.60;;;;;;5012550;28;20549;-82
2023/08/03 13:28:50;;;;;;;3.73;1.43;;;24.50;98.40;;;;;;5009374;28;20503;-81
2023/08/03 13:31:17;;;;;;;1.77;0.90;;;24.50;98.40;;;;;;5004326;28;20464;-82
2023/08/03 13:33:43;;;;;;;1.63;1.07;;;24.60;98.00;;;;;;5001229;28;20822;-80
2023/08/03 13:36:10;;;;;;;2.47;1.10;;;24.70;97.90;;;;;;5001224;28;20512;-79
2023/08/03 13:38:37;;;;;;;2.70;0.87;;;24.70;98.30;;;;;;5000123;28;20807;-80
2023/08/03 13:41:06;;;;;;;2.90;1.27;;;24.80;98.20;;;;;;4999823;28;20909;-80
2023/08/03 13:43:34;;;;;;;2.40;1.10;;;24.90;98.20;;;;;;5002545;28;20487;-81
2023/08/03 13:46:02;;;;;;;2.30;1.20;;;25.10;98.20;;;;;;5000784;28;20514;-81
2023/08/03 13:48:29;;;;;;;1.87;0.93;;;25.30;97.30;;;;;;5006350;28;20982;-81
2023/08/03 13:50:57;;;;;;;4.13;1.20;;;25.50;97.30;;;;;;5001613;28;20458;-80
2023/08/03 13:53:24;;;;;;;2.80;1.13;;;25.40;96.50;;;;;;5004983;28;20443;-82
2023/08/03 13:55:51;;;;;;;2.37;1.23;;;25.50;96.80;;;;;;5007908;28;20452;-81
2023/08/03 13:58:18;;;;;;;2.53;1.50;;;25.50;96.70;;;;;;5005719;28;20492;-80
2023/08/03 14:00:45;;;;;;;2.50;1.30;;;25.60;96.40;;;;;;5004919;28;20496;-80
2023/08/03 14:03:13;;;;;;;1.70;1.00;;;25.40;96.50;;;;;;5004884;28;20451;-80
2023/08/03 14:05:40;;;;;;;4.07;1.13;;;25.30;96.90;;;;;;5014670;28;20519;-81
2023/08/03 14:08:07;;;;;;;2.47;1.30;;;25.00;96.80;;;;;;5014742;23;20455;-72
2023/08/03 14:10:35;;;;;;;3.30;0.97;;;24.80;97.50;;;;;;5029960;28;20868;-73
2023/08/03 14:13:03;;;;;;;4.33;1.17;;;24.70;97.50;;;;;;5035549;28;20500;-73
2023/08/03 14:15:30;;;;;;;3.40;1.20;;;24.80;97.90;;;;;;5016274;28;20433;-73
2023/08/03 14:18:00;;;;;;;2.30;1.10;;;24.70;98.00;;;;;;5012095;28;20443;-74
2023/08/03 14:20:28;;;;;;;3.20;1.33;;;24.60;98.20;;;;;;5020350;28;21009;-73
2023/08/03 14:22:55;;;;;;;3.73;1.40;;;24.60;98.00;;;;;;5013977;28;20488;-72
2023/08/03 14:25:22;;;;;;;4.83;1.63;;;24.60;98.30;;;;;;5028305;28;20464;-73
2023/08/03 14:27:50;;;;;;;4.03;1.20;;;24.70;98.80;;;;;;5015899;28;21004;-72
2023/08/03 14:30:17;;;;;;;1.80;1.07;;;24.80;99.20;;;;;;5016634;28;20454;-73
2023/08/03 14:32:44;;;;;;;3.40;1.33;;;24.80;98.50;;;;;;5020849;28;20874;-72
2023/08/03 14:35:11;;;;;;;2.00;1.23;;;25.00;98.50;;;;;;5013681;28;20456;-71
2023/08/03 14:37:40;;;;;;;3.33;2.20;;;24.80;97.80;;;;;;4998459;28;20533;-74
2023/08/03 14:40:08;;;;;;;3.70;1.70;;;24.60;98.40;;;;;;5012501;28;20487;-73
2023/08/03 14:42:35;;;;;;;5.43;1.57;;;24.30;99.00;;;;;;5022909;28;20835;-72
2023/08/03 14:45:02;;;;;;;5.73;1.97;;;24.20;99.80;;;;;;5025100;28;20444;-71
2023/08/03 14:47:29;;;;;;;3.77;1.73;;;24.10;99.90;;;;;;5019386;28;20447;-72
2023/08/03 14:49:57;;;;;;;5.63;2.20;;;24.00;99.90;;;;;;5022889;28;20929;-72
2023/08/03 14:52:24;;;;;;;4.83;2.20;;;24.00;99.90;;;;;;5032637;28;20447;-73
2023/08/03 14:54:53;;;;;;;2.97;1.70;;;24.00;99.90;;;;;;5022000;28;20531;-72
2023/08/03 14:57:20;;;;;;;3.13;1.40;;;23.90;99.90;;;;;;5021362;28;20467;-71
2023/08/03 14:59:48;;;;;;;5.27;2.27;;;23.80;99.90;;;;;;5013136;28;20459;-73
2023/08/03 15:02:14;;;;;;;6.80;1.50;;;23.50;99.90;;;;;;5025189;28;20566;-72
2023/08/03 15:04:44;;;;;;;2.40;1.10;;;23.30;99.90;;;;;;5008241;28;20519;-71
2023/08/03 15:07:11;;;;;;;2.43;1.70;;;23.10;99.90;;;;;;5012457;28;20523;-72
2023/08/03 15:09:37;;;;;;;2.07;1.60;;;22.80;99.90;;;;;;5021401;28;20859;-71
2023/08/03 15:12:08;;;;;;;3.07;1.70;;;22.70;99.90;;;;;;5014222;28;20543;-73
2023/08/03 15:14:35;;;;;;;3.60;1.70;;;22.70;99.90;;;;;;5016275;28;20467;-71
2023/08/03 15:17:02;;;;;;;2.80;1.60;;;22.70;99.90;;;;;;5019364;28;20440;-71
2023/08/03 15:19:30;;;;;;;4.10;2.10;;;22.80;99.90;;;;;;5000820;28;20536;-73
2023/08/03 15:21:56;;;;;;;2.80;1.50;;;22.70;99.90;;;;;;5017571;28;20558;-71
2023/08/03 15:24:25;;;;;;;1.93;1.53;;;22.60;99.90;;;;;;5005323;28;20491;-74
2023/08/03 15:26:52;;;;;;;4.63;1.97;;;22.60;99.90;;;;;;5016709;28;20471;-72
2023/08/03 15:29:23;;;;;;;5.70;1.70;;;22.80;99.90;;;;;;5018163;28;20776;-71
2023/08/03 15:31:50;;;;;;;2.43;1.40;;;22.90;99.90;;;;;;5022394;28;20435;-73
2023/08/03 15:34:18;;;;;;;6.73;5.10;;;22.90;99.90;;;;;;5024494;28;20474;-73
2023/08/03 15:36:45;;;;;;;4.07;2.07;;;22.90;99.90;;;;;;5015561;28;20851;-72
2023/08/03 15:39:12;;;;;;;3.60;1.67;;;22.90;99.90;;;;;;5025792;28;20514;-73
2023/08/03 15:41:39;;;;;;;7.63;2.07;;;23.00;99.90;;;;;;5022886;28;20478;-72
2023/08/03 15:44:07;;;;;;;5.10;1.80;;;23.10;99.90;;;;;;5017498;28;20476;-73
2023/08/03 15:46:35;;;;;;;2.50;1.73;;;23.20;99.90;;;;;;5006931;28;20499;-73
2023/08/03 15:49:02;;;;;;;3.60;1.90;;;23.30;99.90;;;;;;5022537;28;20450;-71
2023/08/03 15:51:30;;;;;;;8.83;2.50;;;23.50;99.90;;;;;;5016893;28;20480;-72
2023/08/03 15:53:58;;;;;;;4.50;1.80;;;23.80;99.90;;;;;;5023875;28;20473;-73
2023/08/03 15:56:27;;;;;;;4.43;2.33;;;23.50;99.90;;;;;;5023951;28;20448;-72
2023/08/03 15:58:54;;;;;;;5.37;2.40;;;23.30;99.90;;;;;;5021305;28;20536;-72
2023/08/03 16:01:21;;;;;;;9.40;2.40;;;23.10;99.90;;;;;;5026325;28;20857;-71
2023/08/03 16:03:51;;;;;;;6.23;2.93;;;23.20;99.90;;;;;;5021157;28;20503;-72
2023/08/03 16:06:18;;;;;;;4.77;2.23;;;23.30;99.90;;;;;;5013328;28;20984;-72
2023/08/03 16:08:45;;;;;;;8.73;3.03;;;23.50;99.90;;;;;;5022350;28;20488;-72
2023/08/03 16:11:12;;;;;;;5.43;2.73;;;23.40;99.90;;;;;;5022735;28;20447;-73
2023/08/03 16:13:39;;;;;;;5.77;2.87;;;23.40;99.90;;;;;;5023381;28;20517;-72